sensor_id;sensor_type;location;lat;lon;timestamp;temperature;humidity
11246;DHT22;59870;50.106;8.580;2023-04-01T00:01:11;14.60;86.90
11246;DHT22;59870;50.106;8.580;2023-04-01T00:03:41;14.60;87.00
11246;DHT22;59870;50.106;8.580;2023-04-01T00:06:13;14.70;87.00
11246;DHT22;59870;50.106;8.580;2023-04-01T00:08:40;15.00;87.20
11246;DHT22;59870;50.106;8.580;2023-04-01T00:11:08;15.00;87.60
11246;DHT22;59870;50.106;8.580;2023-04-01T00:13:35;14.60;87.10
11246;DHT22;59870;50.106;8.580;2023-04-01T00:16:03;14.60;87.20
11246;DHT22;59870;50.106;8.580;2023-04-01T00:18:46;14.60;87.10
11246;DHT22;59870;50.106;8.580;2023-04-01T00:21:15;14.60;87.20
11246;DHT22;59870;50.106;8.580;2023-04-01T00:23:43;14.50;87.40
11246;DHT22;59870;50.106;8.580;2023-04-01T00:26:10;14.60;87.10
11246;DHT22;59870;50.106;8.580;2023-04-01T00:28:40;14.50;87.00
11246;DHT22;59870;50.106;8.580;2023-04-01T00:31:09;14.50;86.80
11246;DHT22;59870;50.106;8.580;2023-04-01T00:33:37;14.50;86.50
11246;DHT22;59870;50.106;8.580;2023-04-01T00:36:25;14.50;86.70
11246;DHT22;59870;50.106;8.580;2023-04-01T00:38:53;14.50;86.60
11246;DHT22;59870;50.106;8.580;2023-04-01T00:41:20;14.90;86.90
11246;DHT22;59870;50.106;8.580;2023-04-01T00:43:52;14.50;86.30
11246;DHT22;59870;50.106;8.580;2023-04-01T00:46:20;14.50;86.50
11246;DHT22;59870;50.106;8.580;2023-04-01T00:48:52;14.50;86.40
11246;DHT22;59870;50.106;8.580;2023-04-01T00:51:23;14.50;86.20
11246;DHT22;59870;50.106;8.580;2023-04-01T00:53:54;14.50;86.10
11246;DHT22;59870;50.106;8.580;2023-04-01T00:56:27;14.50;86.30
11246;DHT22;59870;50.106;8.580;2023-04-01T00:59:02;14.50;85.90
11246;DHT22;59870;50.106;8.580;2023-04-01T01:01:31;14.50;86.20
11246;DHT22;59870;50.106;8.580;2023-04-01T01:04:00;14.50;85.90
11246;DHT22;59870;50.106;8.580;2023-04-01T01:06:47;14.50;86.00
11246;DHT22;59870;50.106;8.580;2023-04-01T01:12:20;14.60;86.20
11246;DHT22;59870;50.106;8.580;2023-04-01T01:17:40;14.60;85.80
11246;DHT22;59870;50.106;8.580;2023-04-01T01:20:40;14.60;86.10
11246;DHT22;59870;50.106;8.580;2023-04-01T01:28:43;14.60;85.90
11246;DHT22;59870;50.106;8.580;2023-04-01T01:31:37;14.60;85.80
11246;DHT22;59870;50.106;8.580;2023-04-01T01:34:29;14.60;85.80
11246;DHT22;59870;50.106;8.580;2023-04-01T01:37:03;14.60;85.70
11246;DHT22;59870;50.106;8.580;2023-04-01T01:39:34;14.60;85.60
11246;DHT22;59870;50.106;8.580;2023-04-01T01:42:05;14.10;85.40
11246;DHT22;59870;50.106;8.580;2023-04-01T01:44:34;15.20;86.00
11246;DHT22;59870;50.106;8.580;2023-04-01T01:47:03;14.60;85.40
11246;DHT22;59870;50.106;8.580;2023-04-01T01:49:32;14.60;84.90
11246;DHT22;59870;50.106;8.580;2023-04-01T01:52:01;14.60;85.30
11246;DHT22;59870;50.106;8.580;2023-04-01T01:54:28;14.60;85.10
11246;DHT22;59870;50.106;8.580;2023-04-01T01:57:04;14.60;85.10
11246;DHT22;59870;50.106;8.580;2023-04-01T01:59:36;14.60;84.90
11246;DHT22;59870;50.106;8.580;2023-04-01T02:02:06;14.60;84.70
11246;DHT22;59870;50.106;8.580;2023-04-01T02:04:37;14.60;84.60
11246;DHT22;59870;50.106;8.580;2023-04-01T02:07:31;14.80;84.70
11246;DHT22;59870;50.106;8.580;2023-04-01T02:10:00;14.60;84.90
11246;DHT22;59870;50.106;8.580;2023-04-01T02:12:29;14.60;84.40
11246;DHT22;59870;50.106;8.580;2023-04-01T02:15:09;15.30;85.20
11246;DHT22;59870;50.106;8.580;2023-04-01T02:17:43;14.60;84.60
11246;DHT22;59870;50.106;8.580;2023-04-01T02:22:47;14.60;84.40
11246;DHT22;59870;50.106;8.580;2023-04-01T02:25:20;14.50;84.40
11246;DHT22;59870;50.106;8.580;2023-04-01T02:27:51;14.50;84.60
11246;DHT22;59870;50.106;8.580;2023-04-01T02:30:20;14.50;84.60
11246;DHT22;59870;50.106;8.580;2023-04-01T02:32:48;14.50;84.80
11246;DHT22;59870;50.106;8.580;2023-04-01T02:35:18;14.50;84.60
11246;DHT22;59870;50.106;8.580;2023-04-01T02:37:46;14.50;84.40
11246;DHT22;59870;50.106;8.580;2023-04-01T02:40:16;14.50;84.70
11246;DHT22;59870;50.106;8.580;2023-04-01T02:42:44;14.50;84.50
11246;DHT22;59870;50.106;8.580;2023-04-01T02:45:13;14.50;84.60
11246;DHT22;59870;50.106;8.580;2023-04-01T02:47:42;14.50;84.60
11246;DHT22;59870;50.106;8.580;2023-04-01T02:50:10;14.50;84.70
11246;DHT22;59870;50.106;8.580;2023-04-01T02:52:37;14.50;84.50
11246;DHT22;59870;50.106;8.580;2023-04-01T02:55:06;14.50;84.60
11246;DHT22;59870;50.106;8.580;2023-04-01T02:57:34;14.50;84.60
11246;DHT22;59870;50.106;8.580;2023-04-01T03:00:01;14.40;84.60
11246;DHT22;59870;50.106;8.580;2023-04-01T03:02:28;14.40;84.50
11246;DHT22;59870;50.106;8.580;2023-04-01T03:04:56;14.40;84.80
11246;DHT22;59870;50.106;8.580;2023-04-01T03:07:24;14.40;85.00
11246;DHT22;59870;50.106;8.580;2023-04-01T03:09:51;14.40;84.80
11246;DHT22;59870;50.106;8.580;2023-04-01T03:12:19;14.40;84.70
11246;DHT22;59870;50.106;8.580;2023-04-01T03:14:50;14.40;85.10
11246;DHT22;59870;50.106;8.580;2023-04-01T03:17:18;14.30;84.80
11246;DHT22;59870;50.106;8.580;2023-04-01T03:19:45;14.30;85.50
11246;DHT22;59870;50.106;8.580;2023-04-01T03:22:14;14.30;85.30
11246;DHT22;59870;50.106;8.580;2023-04-01T03:24:42;14.40;85.70
11246;DHT22;59870;50.106;8.580;2023-04-01T03:27:10;14.40;85.50
11246;DHT22;59870;50.106;8.580;2023-04-01T03:29:37;14.30;85.80
11246;DHT22;59870;50.106;8.580;2023-04-01T03:32:05;14.30;85.60
11246;DHT22;59870;50.106;8.580;2023-04-01T03:34:32;14.30;85.60
11246;DHT22;59870;50.106;8.580;2023-04-01T03:37:00;14.30;85.90
11246;DHT22;59870;50.106;8.580;2023-04-01T03:39:27;14.30;86.00
11246;DHT22;59870;50.106;8.580;2023-04-01T03:41:55;14.30;86.10
11246;DHT22;59870;50.106;8.580;2023-04-01T03:44:22;14.30;85.80
11246;DHT22;59870;50.106;8.580;2023-04-01T03:46:52;14.30;86.00
11246;DHT22;59870;50.106;8.580;2023-04-01T03:49:20;14.30;85.90
11246;DHT22;59870;50.106;8.580;2023-04-01T03:51:47;14.30;85.80
11246;DHT22;59870;50.106;8.580;2023-04-01T03:54:14;14.30;86.00
11246;DHT22;59870;50.106;8.580;2023-04-01T03:56:43;14.30;85.90
11246;DHT22;59870;50.106;8.580;2023-04-01T03:59:11;14.30;86.00
11246;DHT22;59870;50.106;8.580;2023-04-01T04:01:38;14.30;86.00
11246;DHT22;59870;50.106;8.580;2023-04-01T04:04:06;14.40;85.80
11246;DHT22;59870;50.106;8.580;2023-04-01T04:06:34;14.40;86.00
11246;DHT22;59870;50.106;8.580;2023-04-01T04:09:02;14.40;86.10
11246;DHT22;59870;50.106;8.580;2023-04-01T04:11:30;14.30;85.90
11246;DHT22;59870;50.106;8.580;2023-04-01T04:13:58;14.90;86.70
11246;DHT22;59870;50.106;8.580;2023-04-01T04:16:26;14.30;86.10
11246;DHT22;59870;50.106;8.580;2023-04-01T04:18:59;14.30;86.00
11246;DHT22;59870;50.106;8.580;2023-04-01T04:21:26;14.30;86.40
11246;DHT22;59870;50.106;8.580;2023-04-01T04:23:54;14.40;86.10
11246;DHT22;59870;50.106;8.580;2023-04-01T04:26:22;14.30;86.40
11246;DHT22;59870;50.106;8.580;2023-04-01T04:28:56;14.40;86.30
11246;DHT22;59870;50.106;8.580;2023-04-01T04:31:25;14.30;86.40
11246;DHT22;59870;50.106;8.580;2023-04-01T04:33:56;14.40;86.30
11246;DHT22;59870;50.106;8.580;2023-04-01T04:36:23;14.30;86.30
11246;DHT22;59870;50.106;8.580;2023-04-01T04:38:51;14.30;86.50
11246;DHT22;59870;50.106;8.580;2023-04-01T04:41:19;14.30;86.50
11246;DHT22;59870;50.106;8.580;2023-04-01T04:43:52;14.30;87.20
11246;DHT22;59870;50.106;8.580;2023-04-01T04:46:22;14.30;86.80
11246;DHT22;59870;50.106;8.580;2023-04-01T04:48:55;14.30;86.80
11246;DHT22;59870;50.106;8.580;2023-04-01T04:51:23;14.20;86.70
11246;DHT22;59870;50.106;8.580;2023-04-01T04:53:51;14.20;86.70
11246;DHT22;59870;50.106;8.580;2023-04-01T04:56:22;14.20;87.00
11246;DHT22;59870;50.106;8.580;2023-04-01T04:59:06;14.20;87.70
11246;DHT22;59870;50.106;8.580;2023-04-01T05:01:46;14.20;86.80
11246;DHT22;59870;50.106;8.580;2023-04-01T05:04:14;14.30;86.80
11246;DHT22;59870;50.106;8.580;2023-04-01T05:06:43;14.20;86.80
11246;DHT22;59870;50.106;8.580;2023-04-01T05:09:12;14.30;86.70
11246;DHT22;59870;50.106;8.580;2023-04-01T05:11:39;14.30;86.80
11246;DHT22;59870;50.106;8.580;2023-04-01T05:14:15;14.30;86.90
11246;DHT22;59870;50.106;8.580;2023-04-01T05:16:49;14.30;86.90
11246;DHT22;59870;50.106;8.580;2023-04-01T05:19:17;14.30;86.40
11246;DHT22;59870;50.106;8.580;2023-04-01T05:21:45;14.20;86.70
11246;DHT22;59870;50.106;8.580;2023-04-01T05:24:13;14.20;87.40
11246;DHT22;59870;50.106;8.580;2023-04-01T05:26:40;14.90;88.40
11246;DHT22;59870;50.106;8.580;2023-04-01T05:29:08;14.20;87.90
11246;DHT22;59870;50.106;8.580;2023-04-01T05:31:35;14.20;88.00
11246;DHT22;59870;50.106;8.580;2023-04-01T05:34:04;14.20;88.20
11246;DHT22;59870;50.106;8.580;2023-04-01T05:36:32;14.20;87.60
11246;DHT22;59870;50.106;8.580;2023-04-01T05:39:00;14.20;88.80
11246;DHT22;59870;50.106;8.580;2023-04-01T05:41:28;14.10;89.50
11246;DHT22;59870;50.106;8.580;2023-04-01T05:43:56;14.10;89.50
11246;DHT22;59870;50.106;8.580;2023-04-01T05:46:39;14.10;89.90
11246;DHT22;59870;50.106;8.580;2023-04-01T05:49:25;14.80;90.60
11246;DHT22;59870;50.106;8.580;2023-04-01T05:51:55;14.10;90.20
11246;DHT22;59870;50.106;8.580;2023-04-01T05:54:23;14.10;89.80
11246;DHT22;59870;50.106;8.580;2023-04-01T05:56:51;14.10;90.30
11246;DHT22;59870;50.106;8.580;2023-04-01T05:59:20;14.00;90.20
11246;DHT22;59870;50.106;8.580;2023-04-01T06:01:47;14.00;90.50
11246;DHT22;59870;50.106;8.580;2023-04-01T06:04:17;14.10;90.20
11246;DHT22;59870;50.106;8.580;2023-04-01T06:06:45;14.70;90.70
11246;DHT22;59870;50.106;8.580;2023-04-01T06:09:17;14.00;90.40
11246;DHT22;59870;50.106;8.580;2023-04-01T06:17:30;14.00;90.50
11246;DHT22;59870;50.106;8.580;2023-04-01T06:23:01;14.00;90.30
11246;DHT22;59870;50.106;8.580;2023-04-01T06:28:41;14.00;90.50
11246;DHT22;59870;50.106;8.580;2023-04-01T06:34:37;13.90;90.40
11246;DHT22;59870;50.106;8.580;2023-04-01T06:39:56;14.00;90.70
11246;DHT22;59870;50.106;8.580;2023-04-01T06:46:19;14.00;90.70
11246;DHT22;59870;50.106;8.580;2023-04-01T06:52:58;14.00;90.40
11246;DHT22;59870;50.106;8.580;2023-04-01T06:55:57;14.10;90.30
11246;DHT22;59870;50.106;8.580;2023-04-01T06:58:56;14.10;90.50
11246;DHT22;59870;50.106;8.580;2023-04-01T07:01:34;14.10;90.20
11246;DHT22;59870;50.106;8.580;2023-04-01T07:04:11;14.10;90.40
11246;DHT22;59870;50.106;8.580;2023-04-01T07:06:52;14.10;90.60
11246;DHT22;59870;50.106;8.580;2023-04-01T07:09:27;14.10;90.80
11246;DHT22;59870;50.106;8.580;2023-04-01T07:12:36;14.20;90.90
11246;DHT22;59870;50.106;8.580;2023-04-01T07:15:42;14.20;91.00
11246;DHT22;59870;50.106;8.580;2023-04-01T07:18:15;14.70;91.20
11246;DHT22;59870;50.106;8.580;2023-04-01T07:20:45;14.20;90.90
11246;DHT22;59870;50.106;8.580;2023-04-01T07:23:23;14.20;91.00
11246;DHT22;59870;50.106;8.580;2023-04-01T07:26:19;14.20;91.30
11246;DHT22;59870;50.106;8.580;2023-04-01T07:29:11;14.20;91.20
11246;DHT22;59870;50.106;8.580;2023-04-01T07:32:14;14.20;91.40
11246;DHT22;59870;50.106;8.580;2023-04-01T07:34:50;14.20;91.50
11246;DHT22;59870;50.106;8.580;2023-04-01T07:37:34;14.30;91.70
11246;DHT22;59870;50.106;8.580;2023-04-01T07:57:15;14.30;91.80
11246;DHT22;59870;50.106;8.580;2023-04-01T08:00:15;14.20;91.70
11246;DHT22;59870;50.106;8.580;2023-04-01T08:06:20;14.40;91.60
11246;DHT22;59870;50.106;8.580;2023-04-01T08:15:28;14.60;91.20
11246;DHT22;59870;50.106;8.580;2023-04-01T08:21:02;14.70;90.70
11246;DHT22;59870;50.106;8.580;2023-04-01T08:23:33;14.70;90.80
11246;DHT22;59870;50.106;8.580;2023-04-01T08:29:00;14.70;90.70
11246;DHT22;59870;50.106;8.580;2023-04-01T08:34:15;14.80;90.90
11246;DHT22;59870;50.106;8.580;2023-04-01T08:36:47;15.10;91.30
11246;DHT22;59870;50.106;8.580;2023-04-01T08:39:35;14.80;91.40
11246;DHT22;59870;50.106;8.580;2023-04-01T08:51:30;14.90;91.60
11246;DHT22;59870;50.106;8.580;2023-04-01T09:06:17;15.10;92.00
11246;DHT22;59870;50.106;8.580;2023-04-01T09:09:09;15.20;91.90
11246;DHT22;59870;50.106;8.580;2023-04-01T09:18:30;15.30;92.10
11246;DHT22;59870;50.106;8.580;2023-04-01T09:26:13;15.30;91.90
11246;DHT22;59870;50.106;8.580;2023-04-01T09:28:49;15.40;91.90
11246;DHT22;59870;50.106;8.580;2023-04-01T09:37:35;15.60;92.30
11246;DHT22;59870;50.106;8.580;2023-04-01T09:48:58;15.90;92.10
11246;DHT22;59870;50.106;8.580;2023-04-01T10:03:09;16.00;92.10
11246;DHT22;59870;50.106;8.580;2023-04-01T10:11:53;16.30;92.20
11246;DHT22;59870;50.106;8.580;2023-04-01T10:26:22;16.40;92.50
11246;DHT22;59870;50.106;8.580;2023-04-01T10:34:48;16.60;92.00
11246;DHT22;59870;50.106;8.580;2023-04-01T10:49:27;16.70;92.00
11246;DHT22;59870;50.106;8.580;2023-04-01T10:52:36;16.70;92.10
11246;DHT22;59870;50.106;8.580;2023-04-01T10:56:01;16.80;92.10
11246;DHT22;59870;50.106;8.580;2023-04-01T11:08:59;17.10;91.70
11246;DHT22;59870;50.106;8.580;2023-04-01T11:31:47;17.40;91.70
11246;DHT22;59870;50.106;8.580;2023-04-01T11:40:35;17.50;91.40
11246;DHT22;59870;50.106;8.580;2023-04-01T11:53:01;17.60;90.60
11246;DHT22;59870;50.106;8.580;2023-04-01T12:04:19;17.50;90.10
11246;DHT22;59870;50.106;8.580;2023-04-01T12:23:50;17.30;90.80
11246;DHT22;59870;50.106;8.580;2023-04-01T12:26:43;17.20;90.90
11246;DHT22;59870;50.106;8.580;2023-04-01T12:38:16;17.10;91.10
11246;DHT22;59870;50.106;8.580;2023-04-01T12:44:04;17.00;91.50
11246;DHT22;59870;50.106;8.580;2023-04-01T12:46:54;16.90;91.50
11246;DHT22;59870;50.106;8.580;2023-04-01T12:52:30;16.90;92.00
11246;DHT22;59870;50.106;8.580;2023-04-01T12:55:53;16.90;92.20
11246;DHT22;59870;50.106;8.580;2023-04-01T13:04:05;16.90;92.70
11246;DHT22;59870;50.106;8.580;2023-04-01T13:07:07;17.00;92.90
11246;DHT22;59870;50.106;8.580;2023-04-01T13:15:52;17.20;93.00
11246;DHT22;59870;50.106;8.580;2023-04-01T13:30:11;17.60;92.90
11246;DHT22;59870;50.106;8.580;2023-04-01T13:35:26;17.70;92.60
11246;DHT22;59870;50.106;8.580;2023-04-01T13:40:36;17.80;92.60
11246;DHT22;59870;50.106;8.580;2023-04-01T13:43:31;17.80;92.40
11246;DHT22;59870;50.106;8.580;2023-04-01T13:48:58;18.00;92.60
11246;DHT22;59870;50.106;8.580;2023-04-01T13:51:54;18.10;91.90
11246;DHT22;59870;50.106;8.580;2023-04-01T14:03:21;18.30;91.20
11246;DHT22;59870;50.106;8.580;2023-04-01T14:20:40;18.10;91.00
11246;DHT22;59870;50.106;8.580;2023-04-01T14:23:21;18.20;91.60
11246;DHT22;59870;50.106;8.580;2023-04-01T14:26:22;18.20;90.80
11246;DHT22;59870;50.106;8.580;2023-04-01T14:29:18;18.10;90.90
11246;DHT22;59870;50.106;8.580;2023-04-01T14:34:58;18.10;91.00
11246;DHT22;59870;50.106;8.580;2023-04-01T14:46:56;17.90;91.60
11246;DHT22;59870;50.106;8.580;2023-04-01T14:49:37;17.90;92.00
11246;DHT22;59870;50.106;8.580;2023-04-01T14:54:51;17.90;91.40
11246;DHT22;59870;50.106;8.580;2023-04-01T14:57:29;17.90;91.30
11246;DHT22;59870;50.106;8.580;2023-04-01T15:00:21;17.80;91.10
11246;DHT22;59870;50.106;8.580;2023-04-01T15:03:04;17.80;90.50
11246;DHT22;59870;50.106;8.580;2023-04-01T15:11:48;17.70;90.90
11246;DHT22;59870;50.106;8.580;2023-04-01T15:14:26;17.70;90.70
11246;DHT22;59870;50.106;8.580;2023-04-01T15:28:46;17.60;90.60
11246;DHT22;59870;50.106;8.580;2023-04-01T15:31:59;17.60;90.60
11246;DHT22;59870;50.106;8.580;2023-04-01T15:37:37;17.50;90.40
11246;DHT22;59870;50.106;8.580;2023-04-01T15:46:12;17.30;90.50
11246;DHT22;59870;50.106;8.580;2023-04-01T15:54:22;17.30;91.40
11246;DHT22;59870;50.106;8.580;2023-04-01T15:59:47;17.30;91.50
11246;DHT22;59870;50.106;8.580;2023-04-01T16:05:42;17.40;91.30
11246;DHT22;59870;50.106;8.580;2023-04-01T16:13:52;17.60;91.30
11246;DHT22;59870;50.106;8.580;2023-04-01T16:19:27;17.50;90.50
11246;DHT22;59870;50.106;8.580;2023-04-01T16:22:14;17.40;90.70
11246;DHT22;59870;50.106;8.580;2023-04-01T16:28:02;17.30;91.10
11246;DHT22;59870;50.106;8.580;2023-04-01T16:33:33;17.30;91.00
11246;DHT22;59870;50.106;8.580;2023-04-01T16:36:20;17.10;90.80
11246;DHT22;59870;50.106;8.580;2023-04-01T16:44:26;17.10;91.80
11246;DHT22;59870;50.106;8.580;2023-04-01T16:46:59;17.00;91.70
11246;DHT22;59870;50.106;8.580;2023-04-01T16:49:39;17.00;91.80
11246;DHT22;59870;50.106;8.580;2023-04-01T16:54:51;17.00;91.80
11246;DHT22;59870;50.106;8.580;2023-04-01T17:00:14;17.00;91.60
11246;DHT22;59870;50.106;8.580;2023-04-01T17:11:24;17.00;91.50
11246;DHT22;59870;50.106;8.580;2023-04-01T17:16:48;17.00;91.40
11246;DHT22;59870;50.106;8.580;2023-04-01T17:19:43;17.10;91.40
11246;DHT22;59870;50.106;8.580;2023-04-01T17:25:02;16.90;91.50
11246;DHT22;59870;50.106;8.580;2023-04-01T17:30:35;16.70;92.00
11246;DHT22;59870;50.106;8.580;2023-04-01T17:36:24;16.50;92.10
11246;DHT22;59870;50.106;8.580;2023-04-01T17:42:16;16.40;92.40
11246;DHT22;59870;50.106;8.580;2023-04-01T17:44:59;16.30;92.20
11246;DHT22;59870;50.106;8.580;2023-04-01T17:58:29;16.00;92.00
11246;DHT22;59870;50.106;8.580;2023-04-01T18:01:36;16.00;92.10
11246;DHT22;59870;50.106;8.580;2023-04-01T18:04:15;15.90;92.20
11246;DHT22;59870;50.106;8.580;2023-04-01T18:12:54;15.80;92.40
11246;DHT22;59870;50.106;8.580;2023-04-01T18:15:40;15.80;92.40
11246;DHT22;59870;50.106;8.580;2023-04-01T18:23:58;15.70;92.20
11246;DHT22;59870;50.106;8.580;2023-04-01T18:26:37;15.60;92.30
11246;DHT22;59870;50.106;8.580;2023-04-01T18:29:40;15.60;92.50
11246;DHT22;59870;50.106;8.580;2023-04-01T18:32:26;15.60;92.50
11246;DHT22;59870;50.106;8.580;2023-04-01T18:35:19;15.50;92.50
11246;DHT22;59870;50.106;8.580;2023-04-01T18:38:04;15.40;92.60
11246;DHT22;59870;50.106;8.580;2023-04-01T18:43:53;15.40;92.70
11246;DHT22;59870;50.106;8.580;2023-04-01T18:52:39;15.50;92.70
11246;DHT22;59870;50.106;8.580;2023-04-01T18:55:28;15.50;92.70
11246;DHT22;59870;50.106;8.580;2023-04-01T18:58:12;15.50;92.60
11246;DHT22;59870;50.106;8.580;2023-04-01T19:00:49;15.50;92.60
11246;DHT22;59870;50.106;8.580;2023-04-01T19:06:14;15.50;92.50
11246;DHT22;59870;50.106;8.580;2023-04-01T19:08:44;15.50;92.50
11246;DHT22;59870;50.106;8.580;2023-04-01T19:14:15;15.50;92.30
11246;DHT22;59870;50.106;8.580;2023-04-01T19:17:13;15.50;92.40
11246;DHT22;59870;50.106;8.580;2023-04-01T19:25:02;15.50;92.20
11246;DHT22;59870;50.106;8.580;2023-04-01T19:27:50;15.50;92.20
11246;DHT22;59870;50.106;8.580;2023-04-01T19:33:24;15.50;92.20
11246;DHT22;59870;50.106;8.580;2023-04-01T19:36:15;15.40;92.10
11246;DHT22;59870;50.106;8.580;2023-04-01T19:41:45;15.40;92.10
11246;DHT22;59870;50.106;8.580;2023-04-01T19:44:28;15.40;91.90
11246;DHT22;59870;50.106;8.580;2023-04-01T19:47:21;15.40;91.90
11246;DHT22;59870;50.106;8.580;2023-04-01T19:50:04;15.40;91.90
11246;DHT22;59870;50.106;8.580;2023-04-01T19:52:38;15.40;91.80
11246;DHT22;59870;50.106;8.580;2023-04-01T19:55:21;15.40;91.70
11246;DHT22;59870;50.106;8.580;2023-04-01T19:58:12;15.40;91.70
11246;DHT22;59870;50.106;8.580;2023-04-01T20:00:53;15.40;91.70
11246;DHT22;59870;50.106;8.580;2023-04-01T20:06:22;15.30;91.60
11246;DHT22;59870;50.106;8.580;2023-04-01T20:08:58;15.30;91.60
11246;DHT22;59870;50.106;8.580;2023-04-01T20:14:30;15.30;91.50
11246;DHT22;59870;50.106;8.580;2023-04-01T20:17:07;15.30;91.40
11246;DHT22;59870;50.106;8.580;2023-04-01T20:19:43;15.20;91.40
11246;DHT22;59870;50.106;8.580;2023-04-01T20:22:23;15.50;91.60
11246;DHT22;59870;50.106;8.580;2023-04-01T20:24:59;15.10;91.40
11246;DHT22;59870;50.106;8.580;2023-04-01T20:27:35;15.10;91.50
11246;DHT22;59870;50.106;8.580;2023-04-01T20:30:21;15.00;91.50
11246;DHT22;59870;50.106;8.580;2023-04-01T20:33:26;15.00;91.50
11246;DHT22;59870;50.106;8.580;2023-04-01T20:36:36;15.00;91.60
11246;DHT22;59870;50.106;8.580;2023-04-01T20:48:26;14.80;91.80
11246;DHT22;59870;50.106;8.580;2023-04-01T20:51:06;14.80;91.90
11246;DHT22;59870;50.106;8.580;2023-04-01T20:56:55;14.80;91.80
11246;DHT22;59870;50.106;8.580;2023-04-01T20:59:40;14.80;92.00
11246;DHT22;59870;50.106;8.580;2023-04-01T21:05:27;14.80;92.00
11246;DHT22;59870;50.106;8.580;2023-04-01T21:11:20;14.80;92.10
11246;DHT22;59870;50.106;8.580;2023-04-01T21:28:25;14.90;91.90
11246;DHT22;59870;50.106;8.580;2023-04-01T21:31:40;14.90;91.80
11246;DHT22;59870;50.106;8.580;2023-04-01T21:34:37;14.90;91.90
11246;DHT22;59870;50.106;8.580;2023-04-01T21:46:08;14.90;92.00
11246;DHT22;59870;50.106;8.580;2023-04-01T21:52:07;14.80;92.10
11246;DHT22;59870;50.106;8.580;2023-04-01T22:13:46;14.90;92.10
11246;DHT22;59870;50.106;8.580;2023-04-01T22:19:40;14.90;92.10
11246;DHT22;59870;50.106;8.580;2023-04-01T22:27:39;14.90;92.20
11246;DHT22;59870;50.106;8.580;2023-04-01T22:32:47;14.80;92.30
11246;DHT22;59870;50.106;8.580;2023-04-01T22:35:29;14.80;92.30
11246;DHT22;59870;50.106;8.580;2023-04-01T22:38:17;14.80;92.40
11246;DHT22;59870;50.106;8.580;2023-04-01T22:41:27;15.30;92.70
11246;DHT22;59870;50.106;8.580;2023-04-01T22:43:58;14.90;92.60
11246;DHT22;59870;50.106;8.580;2023-04-01T22:49:41;14.80;92.70
11246;DHT22;59870;50.106;8.580;2023-04-01T22:54:54;14.80;92.70
11246;DHT22;59870;50.106;8.580;2023-04-01T22:57:40;14.80;92.50
11246;DHT22;59870;50.106;8.580;2023-04-01T23:00:39;14.80;92.40
11246;DHT22;59870;50.106;8.580;2023-04-01T23:11:13;14.80;92.50
11246;DHT22;59870;50.106;8.580;2023-04-01T23:13:45;14.80;92.40
11246;DHT22;59870;50.106;8.580;2023-04-01T23:16:17;14.80;92.40
11246;DHT22;59870;50.106;8.580;2023-04-01T23:18:49;14.80;92.40
11246;DHT22;59870;50.106;8.580;2023-04-01T23:21:26;14.80;92.40
11246;DHT22;59870;50.106;8.580;2023-04-01T23:24:19;14.70;92.50
11246;DHT22;59870;50.106;8.580;2023-04-01T23:26:55;14.70;92.50
11246;DHT22;59870;50.106;8.580;2023-04-01T23:29:24;14.80;92.50
11246;DHT22;59870;50.106;8.580;2023-04-01T23:32:03;15.20;92.70
11246;DHT22;59870;50.106;8.580;2023-04-01T23:34:35;14.70;92.40
11246;DHT22;59870;50.106;8.580;2023-04-01T23:37:13;14.70;92.40
11246;DHT22;59870;50.106;8.580;2023-04-01T23:39:45;14.70;92.40
11246;DHT22;59870;50.106;8.580;2023-04-01T23:42:15;14.70;92.40
11246;DHT22;59870;50.106;8.580;2023-04-01T23:44:48;15.40;93.20
11246;DHT22;59870;50.106;8.580;2023-04-01T23:47:29;14.60;92.50
11246;DHT22;59870;50.106;8.580;2023-04-01T23:50:04;14.70;92.60
11246;DHT22;59870;50.106;8.580;2023-04-01T23:52:40;14.60;92.50
11246;DHT22;59870;50.106;8.580;2023-04-01T23:55:23;15.00;92.80
